Time;durP1;ratioP1;P1;durP2;ratioP2;P2;SDS_P1;SDS_P2;PMS_P1;PMS_P2;Temp;Humidity;BMP_temperature;BMP_pressure;BME280_temperature;BME280_humidity;BME280_pressure;Samples;Min_cycle;Max_cycle;Signal;HPM_P1;HPM_P2
2022/04/13 00:01:58;;;;;;;;;;;7.50;99.90;;;;;;5056231;28;19904;-66
2022/04/13 00:04:23;;;;;;;;;;;7.50;99.90;;;;;;5055207;28;19911;-67
2022/04/13 00:06:49;;;;;;;;;;;7.40;99.90;;;;;;5056095;28;20334;-66
2022/04/13 00:09:14;;;;;;;;;;;7.30;99.90;;;;;;5055767;28;19909;-66
2022/04/13 00:11:40;;;;;;;;;;;7.30;99.90;;;;;;5056063;28;19912;-66
2022/04/13 00:14:06;;;;;;;;;;;7.30;99.90;;;;;;5055597;28;20418;-66
2022/04/13 00:16:31;;;;;;;;;;;7.30;99.90;;;;;;5055568;28;19905;-67
2022/04/13 00:18:57;;;;;;;;;;;7.20;99.90;;;;;;5055610;28;19912;-66
2022/04/13 00:21:22;;;;;;;;;;;7.10;99.90;;;;;;5056139;28;19905;-66
2022/04/13 00:23:48;;;;;;;;;;;7.10;99.90;;;;;;5055540;28;19955;-66
2022/04/13 00:26:13;;;;;;;;;;;7.10;99.90;;;;;;5055806;28;19951;-66
2022/04/13 00:28:39;;;;;;;;;;;7.00;99.90;;;;;;5055447;28;19909;-67
2022/04/13 00:31:05;;;;;;;;;;;7.10;99.90;;;;;;5055406;28;19916;-66
2022/04/13 00:33:32;;;;;;;;;;;7.10;99.90;;;;;;5055530;28;19908;-66
2022/04/13 00:35:58;;;;;;;;;;;7.10;99.90;;;;;;5055311;28;19905;-67
2022/04/13 00:38:23;;;;;;;;;;;7.20;99.90;;;;;;5055798;28;19927;-66
2022/04/13 00:40:49;;;;;;;;;;;7.20;99.90;;;;;;5055206;28;19905;-66
2022/04/13 00:43:15;;;;;;;;;;;7.20;99.90;;;;;;5055127;28;20269;-67
2022/04/13 00:45:49;;;;;;;;;;;7.10;99.90;;;;;;5055647;28;19916;-66
2022/04/13 00:48:24;;;;;;;;;;;7.10;99.90;;;;;;5055057;28;19909;-67
2022/04/13 00:50:51;;;;;;;;;;;7.00;99.90;;;;;;5055271;28;19920;-67
2022/04/13 00:53:18;;;;;;;;;;;7.10;99.90;;;;;;5037126;28;20390;-67
2022/04/13 00:55:44;;;;;;;;;;;7.00;99.90;;;;;;5054980;28;19955;-66
2022/04/13 00:58:13;;;;;;;;;;;7.00;99.90;;;;;;5054887;28;19904;-66
2022/04/13 01:00:39;;;;;;;;;;;7.00;99.90;;;;;;5055396;28;19927;-67
2022/04/13 01:03:07;;;;;;;;;;;6.90;99.90;;;;;;5055044;28;20007;-66
2022/04/13 01:05:33;;;;;;;;;;;6.80;99.90;;;;;;5055314;28;19905;-67
2022/04/13 01:07:59;;;;;;;;;;;6.70;99.90;;;;;;5054674;28;20317;-67
2022/04/13 01:10:26;;;;;;;;;;;6.50;99.90;;;;;;5036712;28;19909;-66
2022/04/13 01:12:51;;;;;;;;;;;6.40;99.90;;;;;;5054871;28;19912;-66
2022/04/13 01:15:17;;;;;;;;;;;6.40;99.90;;;;;;5054386;28;20259;-66
2022/04/13 01:17:43;;;;;;;;;;;6.50;99.90;;;;;;5053581;28;19912;-66
2022/04/13 01:20:10;;;;;;;;;;;6.60;99.90;;;;;;5054748;28;19905;-67
2022/04/13 01:22:37;;;;;;;;;;;6.60;99.90;;;;;;5054397;28;19908;-67
2022/04/13 01:25:03;;;;;;;;;;;6.60;99.90;;;;;;5064482;28;20322;-66
2022/04/13 01:27:28;;;;;;;;;;;6.50;99.90;;;;;;5074845;28;19990;-67
2022/04/13 01:29:54;;;;;;;;;;;6.60;99.90;;;;;;5074226;28;19908;-66
2022/04/13 01:32:20;;;;;;;;;;;6.60;99.90;;;;;;5074223;28;19904;-67
2022/04/13 01:34:49;;;;;;;;;;;6.60;99.90;;;;;;5074121;28;19948;-66
2022/04/13 01:37:14;;;;;;;;;;;6.70;99.90;;;;;;5074193;28;19911;-66
2022/04/13 01:39:41;;;;;;;;;;;6.70;99.90;;;;;;5074639;28;19908;-66
2022/04/13 01:42:07;;;;;;;;;;;6.70;99.90;;;;;;5074406;28;19904;-66
2022/04/13 01:44:32;;;;;;;;;;;6.70;99.90;;;;;;5073964;28;19912;-67
2022/04/13 01:46:58;;;;;;;;;;;6.60;99.90;;;;;;5073939;28;19992;-66
2022/04/13 01:49:23;;;;;;;;;;;6.50;99.90;;;;;;5074467;28;19905;-66
2022/04/13 01:51:49;;;;;;;;;;;6.30;99.90;;;;;;5073897;28;19905;-66
2022/04/13 01:54:14;;;;;;;;;;;6.20;99.90;;;;;;5074058;28;19912;-66
2022/04/13 01:56:40;;;;;;;;;;;6.20;99.90;;;;;;5073864;28;19908;-66
2022/04/13 01:59:07;;;;;;;;;;;6.30;99.90;;;;;;5074418;28;19970;-67
2022/04/13 02:01:34;;;;;;;;;;;6.30;99.90;;;;;;5073783;28;19908;-66
2022/04/13 02:04:00;;;;;;;;;;;6.30;99.90;;;;;;5073772;28;19931;-67
2022/04/13 02:06:26;;;;;;;;;;;6.40;99.90;;;;;;5073942;28;20267;-66
2022/04/13 02:08:52;;;;;;;;;;;6.40;99.90;;;;;;5073721;28;20387;-66
2022/04/13 02:11:18;;;;;;;;;;;6.40;99.90;;;;;;5073679;28;19910;-66
2022/04/13 02:13:43;;;;;;;;;;;6.40;99.90;;;;;;5073790;28;19908;-67
2022/04/13 02:16:09;;;;;;;;;;;6.40;99.90;;;;;;5073541;28;19904;-66
2022/04/13 02:18:34;;;;;;;;;;;6.30;99.90;;;;;;5073569;28;19908;-67
2022/04/13 02:21:00;;;;;;;;;;;6.40;99.90;;;;;;5073836;28;19904;-66
2022/04/13 02:23:25;;;;;;;;;;;6.50;99.90;;;;;;5070983;28;19904;-66
2022/04/13 02:25:51;;;;;;;;;;;6.40;99.90;;;;;;5053836;28;19905;-67
2022/04/13 02:28:16;;;;;;;;;;;6.30;99.90;;;;;;5056534;28;20317;-66
2022/04/13 02:30:42;;;;;;;;;;;6.30;99.90;;;;;;5060674;28;19905;-66
2022/04/13 02:33:07;;;;;;;;;;;6.30;99.90;;;;;;5060035;28;19920;-66
2022/04/13 02:35:33;;;;;;;;;;;6.20;99.90;;;;;;5060100;28;19958;-66
2022/04/13 02:37:58;;;;;;;;;;;6.10;99.90;;;;;;5060348;28;19912;-66
2022/04/13 02:40:24;;;;;;;;;;;6.10;99.90;;;;;;5059970;28;19955;-66
2022/04/13 02:42:50;;;;;;;;;;;6.00;99.90;;;;;;5060278;28;20007;-66
2022/04/13 02:45:15;;;;;;;;;;;5.90;99.90;;;;;;5059973;28;19952;-66
2022/04/13 02:47:41;;;;;;;;;;;5.90;99.90;;;;;;5059930;28;19905;-67
2022/04/13 02:50:06;;;;;;;;;;;5.90;99.90;;;;;;5060186;28;19928;-67
2022/04/13 02:52:32;;;;;;;;;;;5.80;99.90;;;;;;5059890;28;19905;-66
2022/04/13 02:54:58;;;;;;;;;;;5.80;99.90;;;;;;5060126;28;20397;-66
2022/04/13 02:57:24;;;;;;;;;;;5.90;99.90;;;;;;5059843;28;19905;-65
2022/04/13 02:59:49;;;;;;;;;;;5.70;99.90;;;;;;5059835;28;20400;-66
2022/04/13 03:02:15;;;;;;;;;;;5.50;99.90;;;;;;5060094;28;19989;-66
2022/04/13 03:04:47;;;;;;;;;;;5.40;99.90;;;;;;5059787;28;19912;-66
2022/04/13 03:07:14;;;;;;;;;;;5.30;99.90;;;;;;5060049;28;19904;-67
2022/04/13 03:09:40;;;;;;;;;;;5.30;99.90;;;;;;5059729;28;20322;-66
2022/04/13 03:12:06;;;;;;;;;;;5.50;99.90;;;;;;5059743;28;19904;-65
2022/04/13 03:14:33;;;;;;;;;;;5.50;99.90;;;;;;5060186;28;19908;-66
2022/04/13 03:16:58;;;;;;;;;;;5.50;99.90;;;;;;5059998;28;19928;-66
2022/04/13 03:19:24;;;;;;;;;;;5.40;99.90;;;;;;5060273;28;19905;-66
2022/04/13 03:21:51;;;;;;;;;;;5.50;99.90;;;;;;5059635;28;19950;-66
2022/04/13 03:24:17;;;;;;;;;;;5.50;99.90;;;;;;5059592;28;19917;-66
2022/04/13 03:26:43;;;;;;;;;;;5.60;99.90;;;;;;5060158;28;20392;-67
2022/04/13 03:29:09;;;;;;;;;;;5.60;99.90;;;;;;5059908;28;19912;-66
2022/04/13 03:31:35;;;;;;;;;;;5.70;99.90;;;;;;5060106;28;19909;-66
2022/04/13 03:34:00;;;;;;;;;;;5.70;99.90;;;;;;5059715;28;20373;-66
2022/04/13 03:36:26;;;;;;;;;;;5.70;99.90;;;;;;5060099;28;20362;-67
2022/04/13 03:38:51;;;;;;;;;;;5.70;99.90;;;;;;5059103;28;19904;-67
2022/04/13 03:41:18;;;;;;;;;;;5.60;99.90;;;;;;5055635;28;20373;-67
2022/04/13 03:43:43;;;;;;;;;;;5.60;99.90;;;;;;5056292;28;20030;-67
2022/04/13 03:46:09;;;;;;;;;;;5.60;99.90;;;;;;5056215;28;19943;-66
2022/04/13 03:48:34;;;;;;;;;;;5.60;99.90;;;;;;5056474;28;19966;-66
2022/04/13 03:51:00;;;;;;;;;;;5.50;99.90;;;;;;5056374;28;20328;-66
2022/04/13 03:53:26;;;;;;;;;;;5.40;99.90;;;;;;5056583;28;20000;-67
2022/04/13 03:55:51;;;;;;;;;;;5.40;99.90;;;;;;5056041;28;19904;-66
2022/04/13 03:58:17;;;;;;;;;;;5.30;99.90;;;;;;5056001;28;19951;-66
2022/04/13 04:00:42;;;;;;;;;;;5.20;99.90;;;;;;5055960;28;19940;-67
2022/04/13 04:03:08;;;;;;;;;;;5.30;99.90;;;;;;5055936;28;19904;-66
2022/04/13 04:05:33;;;;;;;;;;;5.30;99.90;;;;;;5055882;28;19905;-66
2022/04/13 04:07:59;;;;;;;;;;;5.20;99.90;;;;;;5056099;28;19905;-66
2022/04/13 04:10:24;;;;;;;;;;;5.20;99.90;;;;;;5055810;28;20363;-67
2022/04/13 04:12:50;;;;;;;;;;;5.40;99.90;;;;;;5055732;28;19912;-67
2022/04/13 04:15:16;;;;;;;;;;;5.40;99.90;;;;;;5055816;28;19948;-66
2022/04/13 04:17:41;;;;;;;;;;;5.40;99.90;;;;;;5055668;28;20385;-66
2022/04/13 04:20:07;;;;;;;;;;;5.40;99.90;;;;;;5055860;28;19904;-66
2022/04/13 04:22:34;;;;;;;;;;;5.50;99.90;;;;;;5055659;28;20285;-67
2022/04/13 04:25:00;;;;;;;;;;;5.40;99.90;;;;;;5055316;28;20439;-66
2022/04/13 04:27:26;;;;;;;;;;;5.40;99.90;;;;;;5055789;28;19940;-66
2022/04/13 04:29:51;;;;;;;;;;;5.30;99.90;;;;;;5055449;28;19987;-67
2022/04/13 04:32:17;;;;;;;;;;;5.30;99.90;;;;;;5055415;28;19944;-66
2022/04/13 04:34:42;;;;;;;;;;;5.30;99.90;;;;;;5055573;28;19916;-66
2022/04/13 04:37:08;;;;;;;;;;;5.30;99.90;;;;;;5055286;28;19905;-66
2022/04/13 04:39:33;;;;;;;;;;;5.30;99.90;;;;;;5055553;28;19955;-67
2022/04/13 04:41:59;;;;;;;;;;;5.20;99.90;;;;;;5055235;28;19911;-66
2022/04/13 04:44:25;;;;;;;;;;;5.20;99.90;;;;;;5055458;28;19948;-66
2022/04/13 04:46:50;;;;;;;;;;;5.20;99.90;;;;;;5055140;28;20285;-66
2022/04/13 04:49:16;;;;;;;;;;;5.30;99.90;;;;;;5055355;28;19955;-66
2022/04/13 04:51:41;;;;;;;;;;;5.30;99.90;;;;;;5054863;28;19904;-66
2022/04/13 04:54:07;;;;;;;;;;;5.30;99.90;;;;;;5054919;28;19908;-66
2022/04/13 04:56:34;;;;;;;;;;;5.20;99.90;;;;;;5054923;28;19981;-66
2022/04/13 04:58:59;;;;;;;;;;;5.20;99.90;;;;;;5054852;28;19914;-66
2022/04/13 05:01:25;;;;;;;;;;;5.20;99.90;;;;;;5054836;28;19909;-66
2022/04/13 05:03:50;;;;;;;;;;;5.20;99.90;;;;;;5055332;28;19951;-66
2022/04/13 05:06:18;;;;;;;;;;;5.30;99.90;;;;;;5055031;28;19904;-66
2022/04/13 05:08:43;;;;;;;;;;;5.30;99.90;;;;;;5054684;28;19905;-66
2022/04/13 05:11:09;;;;;;;;;;;5.30;99.90;;;;;;5054691;28;19912;-66
2022/04/13 05:13:34;;;;;;;;;;;5.30;99.90;;;;;;5054582;28;20289;-66
2022/04/13 05:16:00;;;;;;;;;;;5.30;99.90;;;;;;5055010;28;19950;-66
2022/04/13 05:18:25;;;;;;;;;;;5.20;99.90;;;;;;5054496;28;19905;-66
2022/04/13 05:20:51;;;;;;;;;;;5.00;99.90;;;;;;5054724;28;19911;-66
2022/04/13 05:23:18;;;;;;;;;;;5.00;99.90;;;;;;5054221;28;19908;-66
2022/04/13 05:25:46;;;;;;;;;;;4.80;99.90;;;;;;5054727;28;19911;-66
2022/04/13 05:28:12;;;;;;;;;;;4.90;99.90;;;;;;5054337;28;19905;-67
2022/04/13 05:30:37;;;;;;;;;;;4.90;99.90;;;;;;5054595;28;19904;-67
2022/04/13 05:33:03;;;;;;;;;;;4.90;99.90;;;;;;5054174;28;19927;-66
2022/04/13 05:35:28;;;;;;;;;;;4.90;99.90;;;;;;5054111;28;20414;-66
2022/04/13 05:37:54;;;;;;;;;;;4.90;99.90;;;;;;5054477;28;19991;-66
2022/04/13 05:40:21;;;;;;;;;;;4.80;99.90;;;;;;5054108;28;19912;-66
2022/04/13 05:42:48;;;;;;;;;;;4.80;99.90;;;;;;5054082;28;19999;-66
2022/04/13 05:45:15;;;;;;;;;;;4.80;99.90;;;;;;5054588;28;19905;-67
2022/04/13 05:47:42;;;;;;;;;;;4.80;99.90;;;;;;5054313;28;19912;-67
2022/04/13 05:50:08;;;;;;;;;;;4.80;99.90;;;;;;5054223;28;19908;-66
2022/04/13 05:52:34;;;;;;;;;;;5.00;99.90;;;;;;5054167;28;19904;-66
2022/04/13 05:54:59;;;;;;;;;;;5.10;99.90;;;;;;5053776;28;20374;-66
2022/04/13 05:57:25;;;;;;;;;;;5.30;99.90;;;;;;5054039;28;19915;-66
2022/04/13 05:59:50;;;;;;;;;;;5.40;99.90;;;;;;5053802;28;19904;-66
2022/04/13 06:02:16;;;;;;;;;;;5.70;99.90;;;;;;5053287;28;19904;-66
2022/04/13 06:04:41;;;;;;;;;;;5.90;99.90;;;;;;5053928;28;20274;-66
2022/04/13 06:07:07;;;;;;;;;;;6.10;99.90;;;;;;5053688;28;19959;-66
2022/04/13 06:09:32;;;;;;;;;;;6.40;99.90;;;;;;5053926;28;20345;-66
2022/04/13 06:11:59;;;;;;;;;;;6.70;99.90;;;;;;5053655;28;19905;-66
2022/04/13 06:14:25;;;;;;;;;;;6.90;99.90;;;;;;5053494;28;20066;-66
2022/04/13 06:16:50;;;;;;;;;;;7.00;99.90;;;;;;5053628;28;19999;-66
2022/04/13 06:19:16;;;;;;;;;;;7.10;99.90;;;;;;5053811;28;19904;-66
2022/04/13 06:21:41;;;;;;;;;;;7.30;99.90;;;;;;5053825;28;19953;-67
2022/04/13 06:24:07;;;;;;;;;;;7.50;99.90;;;;;;5053312;28;19967;-66
2022/04/13 06:26:32;;;;;;;;;;;7.60;99.90;;;;;;5053483;28;19904;-66
2022/04/13 06:28:58;;;;;;;;;;;7.80;99.90;;;;;;5053468;28;19905;-66
2022/04/13 06:31:23;;;;;;;;;;;8.20;99.90;;;;;;5053453;28;20453;-67
2022/04/13 06:33:49;;;;;;;;;;;8.40;99.90;;;;;;5053323;28;20419;-67
2022/04/13 06:36:15;;;;;;;;;;;8.60;99.90;;;;;;5053420;28;19909;-67
2022/04/13 06:38:40;;;;;;;;;;;9.00;99.90;;;;;;5053931;28;19908;-67
2022/04/13 06:41:12;;;;;;;;;;;9.40;99.90;;;;;;5053339;28;19991;-66
2022/04/13 06:43:38;;;;;;;;;;;9.60;99.90;;;;;;5053878;28;19905;-67
2022/04/13 06:46:04;;;;;;;;;;;10.20;99.90;;;;;;5053280;28;19904;-67
2022/04/13 06:48:29;;;;;;;;;;;11.00;99.90;;;;;;5053262;28;19931;-66
2022/04/13 06:50:55;;;;;;;;;;;11.60;99.90;;;;;;5053246;28;19908;-67
2022/04/13 06:53:20;;;;;;;;;;;12.70;99.90;;;;;;5053409;28;19905;-67
2022/04/13 06:55:47;;;;;;;;;;;13.50;99.90;;;;;;5053210;28;19944;-67
2022/04/13 06:58:16;;;;;;;;;;;13.70;99.90;;;;;;5053466;28;19919;-65
2022/04/13 07:00:41;;;;;;;;;;;14.70;99.90;;;;;;5053137;28;19911;-65
2022/04/13 07:03:07;;;;;;;;;;;16.10;99.90;;;;;;5053692;28;19905;-65
2022/04/13 07:05:32;;;;;;;;;;;15.60;99.90;;;;;;5053391;28;19912;-67
2022/04/13 07:07:58;;;;;;;;;;;14.40;99.90;;;;;;5053074;28;19905;-67
2022/04/13 07:10:26;;;;;;;;;;;14.90;99.90;;;;;;5052958;28;19905;-68
2022/04/13 07:12:52;;;;;;;;;;;15.10;99.90;;;;;;5053558;28;20380;-68
2022/04/13 07:15:18;;;;;;;;;;;14.90;99.90;;;;;;5054640;28;20039;-68
2022/04/13 07:17:44;;;;;;;;;;;14.10;99.90;;;;;;5057076;28;19947;-68
2022/04/13 07:20:12;;;;;;;;;;;13.80;99.90;;;;;;5056751;28;19991;-68
2022/04/13 07:22:44;;;;;;;;;;;14.10;99.90;;;;;;5056977;28;19904;-69
2022/04/13 07:25:10;;;;;;;;;;;16.80;99.90;;;;;;5056251;28;20501;-69
2022/04/13 07:27:36;;;;;;;;;;;17.90;99.90;;;;;;5056656;28;19951;-69
2022/04/13 07:30:01;;;;;;;;;;;18.20;99.90;;;;;;5056859;28;19919;-68
2022/04/13 07:32:27;;;;;;;;;;;17.90;99.90;;;;;;5056498;28;19904;-69
2022/04/13 07:34:52;;;;;;;3.92;3.45;;;18.80;99.90;;;;;;5056244;28;19916;-69
2022/04/13 07:37:18;;;;;;;3.15;2.85;;;20.40;99.90;;;;;;5056268;28;20021;-69
2022/04/13 07:39:43;;;;;;;5.75;3.33;;;21.70;99.90;;;;;;5055993;28;20052;-69
2022/04/13 07:42:09;;;;;;;4.57;3.45;;;23.00;97.50;;;;;;5056231;28;20025;-69
2022/04/13 07:44:35;;;;;;;4.47;3.28;;;23.00;95.80;;;;;;5056083;28;20116;-69
2022/04/13 07:47:00;;;;;;;4.28;3.55;;;23.20;95.50;;;;;;5055853;28;20028;-69
2022/04/13 07:49:26;;;;;;;4.18;3.30;;;23.20;95.20;;;;;;5056047;28;20037;-69
2022/04/13 07:51:52;;;;;;;3.50;3.20;;;22.80;94.60;;;;;;5055999;28;20418;-69
2022/04/13 07:54:17;;;;;;;4.28;3.30;;;22.80;95.30;;;;;;5055888;28;20025;-69
2022/04/13 07:56:43;;;;;;;5.55;3.90;;;23.40;93.70;;;;;;5055626;28;20025;-69
2022/04/13 07:59:09;;;;;;;6.68;4.00;;;24.80;92.50;;;;;;5055593;28;20055;-69
2022/04/13 08:01:34;;;;;;;3.72;3.35;;;24.70;92.00;;;;;;5055581;28;20028;-69
2022/04/13 08:04:00;;;;;;;3.65;3.28;;;25.40;91.30;;;;;;5055511;28;20040;-66
2022/04/13 08:06:25;;;;;;;5.75;4.03;;;25.80;90.70;;;;;;5055482;28;20443;-66
2022/04/13 08:08:52;;;;;;;4.65;3.63;;;25.60;90.80;;;;;;5055771;28;20059;-67
2022/04/13 08:11:18;;;;;;;6.53;3.90;;;26.40;90.30;;;;;;5055660;28;20021;-67
2022/04/13 08:13:44;;;;;;;4.22;3.42;;;26.90;87.80;;;;;;5055283;28;20076;-67
2022/04/13 08:16:10;;;;;;;6.60;4.60;;;27.90;85.90;;;;;;5055295;28;20032;-68
2022/04/13 08:18:35;;;;;;;5.50;3.78;;;28.10;85.60;;;;;;5055231;28;20025;-67
2022/04/13 08:21:02;;;;;;;5.28;3.70;;;28.60;82.80;;;;;;5055763;28;20067;-68
2022/04/13 08:23:28;;;;;;;4.45;3.42;;;28.40;82.10;;;;;;5055176;28;20063;-67
2022/04/13 08:25:54;;;;;;;5.45;3.70;;;28.90;80.30;;;;;;5055145;28;20090;-67
2022/04/13 08:28:21;;;;;;;4.38;3.30;;;29.50;78.70;;;;;;5055231;28;20396;-66
2022/04/13 08:30:46;;;;;;;4.45;3.47;;;30.20;77.80;;;;;;5054947;28;20021;-66
2022/04/13 08:33:12;;;;;;;3.78;3.35;;;30.40;76.30;;;;;;5055234;28;20068;-68
2022/04/13 08:35:37;;;;;;;4.60;3.35;;;30.50;75.00;;;;;;5054840;28;20475;-67
2022/04/13 08:38:03;;;;;;;5.03;3.60;;;30.70;74.60;;;;;;5054900;28;20031;-67
2022/04/13 08:40:35;;;;;;;5.32;3.65;;;30.40;75.60;;;;;;5055135;28;20071;-67
2022/04/13 08:43:04;;;;;;;5.95;3.70;;;30.00;75.80;;;;;;5055132;28;20025;-68
2022/04/13 08:45:34;;;;;;;5.88;3.50;;;30.90;74.00;;;;;;5054762;28;20105;-67
2022/04/13 08:48:04;;;;;;;6.22;3.95;;;31.00;74.40;;;;;;5054719;28;20025;-67
2022/04/13 08:50:31;;;;;;;5.32;3.72;;;30.90;73.90;;;;;;5054613;28;20111;-67
2022/04/13 08:53:02;;;;;;;6.13;4.03;;;31.10;73.60;;;;;;5054554;28;20086;-67
2022/04/13 08:55:30;;;;;;;7.43;3.72;;;31.10;73.00;;;;;;5054726;28;20035;-67
2022/04/13 08:58:10;;;;;;;5.57;3.70;;;31.00;73.70;;;;;;5054770;28;20033;-67
2022/04/13 09:00:39;;;;;;;6.15;4.18;;;31.20;73.70;;;;;;5054773;28;20518;-66
2022/04/13 09:03:24;;;;;;;6.07;3.67;;;32.40;72.30;;;;;;5054406;28;20483;-66
2022/04/13 09:05:51;;;;;;;6.78;3.70;;;31.90;71.30;;;;;;5054635;28;20067;-67
2022/04/13 09:08:22;;;;;;;9.30;5.45;;;32.70;69.90;;;;;;5054344;28;20029;-66
2022/04/13 09:10:51;;;;;;;11.05;6.45;;;32.00;69.10;;;;;;5054246;28;20017;-67
2022/04/13 09:13:18;;;;;;;;;;;32.60;68.70;;;;;;5054572;28;20032;-68
2022/04/13 09:15:44;;;;;;;10.40;7.57;;;32.80;68.60;;;;;;5054114;28;19909;-67
2022/04/13 09:18:11;;;;;;;13.57;7.95;;;32.50;67.90;;;;;;5054097;28;20047;-67
2022/04/13 09:20:37;;;;;;;10.50;7.43;;;32.60;68.30;;;;;;5054308;28;20511;-67
2022/04/13 09:23:04;;;;;;;9.35;5.80;;;33.40;66.50;;;;;;5054012;28;20017;-67
2022/04/13 09:25:32;;;;;;;9.07;5.40;;;33.10;65.80;;;;;;5053504;28;20503;-67
2022/04/13 09:27:59;;;;;;;7.85;4.38;;;33.00;66.10;;;;;;5054475;28;20490;-68
2022/04/13 09:30:25;;;;;;;6.15;4.18;;;33.40;64.90;;;;;;5053833;28;20071;-66
2022/04/13 09:32:51;;;;;;;6.22;3.63;;;34.30;62.20;;;;;;5053838;28;20104;-69
2022/04/13 09:35:19;;;;;;;8.90;4.40;;;33.80;60.90;;;;;;5053711;28;20387;-66
2022/04/13 09:37:45;;;;;;;6.38;3.47;;;33.30;61.50;;;;;;5053221;28;20025;-68
2022/04/13 09:40:25;;;;;;;7.00;3.00;;;33.80;61.50;;;;;;5053978;28;20021;-66
2022/04/13 09:42:50;;;;;;;4.35;2.63;;;34.40;57.90;;;;;;5054166;28;20021;-67
2022/04/13 09:45:16;;;;;;;4.82;1.80;;;35.40;56.10;;;;;;5053583;28;20368;-67
2022/04/13 09:47:46;;;;;;;3.38;1.48;;;35.60;54.50;;;;;;5053577;28;20029;-66
2022/04/13 09:50:25;;;;;;;8.70;1.90;;;36.20;52.30;;;;;;5053480;28;20495;-67
2022/04/13 09:52:57;;;;;;;1.98;1.00;;;35.90;51.90;;;;;;5053495;28;20028;-67
2022/04/13 09:55:23;;;;;;;2.47;1.13;;;34.20;52.00;;;;;;5053686;28;20028;-67
2022/04/13 09:57:49;;;;;;;1.35;0.90;;;34.20;52.20;;;;;;5053699;28;20025;-67
2022/04/13 10:00:16;;;;;;;3.33;1.13;;;34.80;51.00;;;;;;5053420;28;20022;-67
2022/04/13 10:02:43;;;;;;;3.15;1.10;;;35.00;50.60;;;;;;5053919;28;20160;-67
2022/04/13 10:05:20;;;;;;;2.55;1.30;;;34.60;50.60;;;;;;5053667;28;20021;-67
2022/04/13 10:08:00;;;;;;;3.50;1.20;;;34.90;51.40;;;;;;5053657;28;20025;-66
2022/04/13 10:10:25;;;;;;;5.13;1.58;;;35.50;50.10;;;;;;5053818;28;20112;-67
2022/04/13 10:12:52;;;;;;;3.03;1.05;;;35.80;49.90;;;;;;5053523;28;20099;-67
2022/04/13 10:15:18;;;;;;;3.53;1.50;;;35.80;49.10;;;;;;5053359;28;20028;-67
2022/04/13 10:17:43;;;;;;;2.50;1.42;;;35.50;48.40;;;;;;5053442;28;20017;-68
2022/04/13 10:20:09;;;;;;;3.88;1.00;;;35.70;48.10;;;;;;5053091;28;20021;-66
2022/04/13 10:22:59;;;;;;;2.95;0.93;;;35.30;48.20;;;;;;5053640;28;20017;-66
2022/04/13 10:25:28;;;;;;;1.90;0.80;;;34.60;48.30;;;;;;5052916;28;20470;-66
2022/04/13 10:27:59;;;;;;;2.20;0.98;;;34.80;47.50;;;;;;5053010;28;20032;-67
2022/04/13 10:30:29;;;;;;;2.33;0.80;;;35.00;48.10;;;;;;5053572;28;20044;-66
2022/04/13 10:32:58;;;;;;;3.95;0.82;;;35.00;48.30;;;;;;5052974;28;20057;-66
2022/04/13 10:35:26;;;;;;;1.33;0.70;;;36.60;47.20;;;;;;5052936;28;20082;-67
2022/04/13 10:37:52;;;;;;;3.53;0.88;;;36.70;45.40;;;;;;5053015;28;20528;-67
2022/04/13 10:40:19;;;;;;;2.80;0.90;;;35.80;47.10;;;;;;5053103;28;20112;-68
2022/04/13 10:42:46;;;;;;;;;;;36.90;45.90;;;;;;5053289;28;20082;-68
2022/04/13 10:45:13;;;;;;;1.77;1.00;;;36.20;45.90;;;;;;5053197;28;19911;-67
2022/04/13 10:47:59;;;;;;;2.10;0.75;;;36.80;46.30;;;;;;5052912;28;20037;-68
2022/04/13 10:50:32;;;;;;;3.70;1.33;;;36.60;45.70;;;;;;5039143;28;20120;-68
2022/04/13 10:53:27;;;;;;;1.25;0.80;;;36.20;44.80;;;;;;5057101;28;20029;-68
2022/04/13 10:56:04;;;;;;;2.42;0.70;;;36.60;45.80;;;;;;5006880;28;20045;-67
2022/04/13 10:58:48;;;;;;;2.78;0.93;;;36.00;46.20;;;;;;5056831;28;20025;-67
2022/04/13 11:01:15;;;;;;;2.28;0.95;;;35.60;45.50;;;;;;5056743;28;20552;-67
2022/04/13 11:03:42;;;;;;;2.30;1.00;;;35.70;46.00;;;;;;5056682;28;20017;-67
2022/04/13 11:06:09;;;;;;;1.35;0.65;;;32.40;46.70;;;;;;5056638;28;20479;-67
2022/04/13 11:08:37;;;;;;;;;;;31.80;47.60;;;;;;5056994;28;20013;-66
2022/04/13 11:11:04;;;;;;;1.67;0.93;;;30.10;49.70;;;;;;5056855;28;20424;-67
2022/04/13 11:13:32;;;;;;;2.42;0.95;;;31.30;49.90;;;;;;5056409;28;20483;-68
2022/04/13 11:16:14;;;;;;;1.92;0.88;;;32.70;48.30;;;;;;5056397;28;20031;-66
2022/04/13 11:18:40;;;;;;;1.40;0.65;;;33.40;48.00;;;;;;5056727;28;20017;-67
2022/04/13 11:21:09;;;;;;;1.88;0.90;;;34.80;46.10;;;;;;5056315;28;20029;-67
2022/04/13 11:23:49;;;;;;;13.05;1.55;;;35.30;45.50;;;;;;5056353;28;20068;-66
2022/04/13 11:26:25;;;;;;;1.73;0.77;;;35.00;45.40;;;;;;5056571;28;20054;-66
2022/04/13 11:29:09;;;;;;;1.48;0.82;;;32.90;47.60;;;;;;5056245;28;20029;-66
2022/04/13 11:32:04;;;;;;;2.60;0.75;;;33.40;46.70;;;;;;5056669;28;20124;-66
2022/04/13 11:34:51;;;;;;;1.67;0.70;;;34.50;47.00;;;;;;5056263;28;20025;-67
2022/04/13 11:37:23;;;;;;;2.07;0.77;;;35.10;45.30;;;;;;5056060;28;20025;-66
2022/04/13 11:39:53;;;;;;;;;;;34.80;45.40;;;;;;5056342;28;20475;-66
2022/04/13 11:42:24;;;;;;;;;;;32.60;47.30;;;;;;5056928;28;19905;-66
2022/04/13 11:44:51;;;;;;;;;;;30.70;48.70;;;;;;5056618;28;19905;-66
2022/04/13 11:47:17;;;;;;;;;;;28.60;51.60;;;;;;5056272;28;19909;-67
2022/04/13 11:50:02;;;;;;;;;;;27.50;54.30;;;;;;5056239;28;19905;-67
2022/04/13 11:52:49;;;;;;;;;;;26.60;54.40;;;;;;5056201;28;19943;-66
2022/04/13 11:55:18;;;;;;;;;;;25.70;55.60;;;;;;5056647;28;19966;-66
2022/04/13 11:58:02;;;;;;;;;;;25.10;57.20;;;;;;5056138;28;20039;-66
2022/04/13 12:00:40;;;;;;;;;;;24.80;57.70;;;;;;5055212;28;19905;-66
2022/04/13 12:03:06;;;;;;;;;;;24.40;58.40;;;;;;5056039;28;19905;-67
2022/04/13 12:05:33;;;;;;;;;;;24.60;58.40;;;;;;5056536;28;19904;-67
2022/04/13 12:07:58;;;;;;;;;;;25.00;56.90;;;;;;5055904;28;19904;-66
2022/04/13 12:10:25;;;;;;;;;;;25.10;57.60;;;;;;5056090;28;19958;-66
2022/04/13 12:12:55;;;;;;;;;;;25.30;57.30;;;;;;5055870;28;19912;-66
2022/04/13 12:15:20;;;;;;;;;;;25.20;56.70;;;;;;5055765;28;19909;-66
2022/04/13 12:17:46;;;;;;;;;;;24.90;57.00;;;;;;5056322;28;19916;-67
2022/04/13 12:20:27;;;;;;;;;;;25.00;57.20;;;;;;5055734;28;19908;-67
2022/04/13 12:22:53;;;;;;;;;;;24.80;58.30;;;;;;5055924;28;19927;-66
2022/04/13 12:25:19;;;;;;;;;;;25.00;58.80;;;;;;5055200;28;20386;-66
2022/04/13 12:28:03;;;;;;;;;;;25.30;56.20;;;;;;5055502;28;19940;-67
2022/04/13 12:30:28;;;;;;;;;;;24.50;56.60;;;;;;5055771;28;20397;-66
2022/04/13 12:32:54;;;;;;;;;;;23.60;58.30;;;;;;5055441;28;19904;-66
2022/04/13 12:35:19;;;;;;;;;;;23.90;59.20;;;;;;5055846;28;19959;-67
2022/04/13 12:37:55;;;;;;;;;;;24.60;59.50;;;;;;5055368;28;19905;-67
2022/04/13 12:40:22;;;;;;;;;;;24.90;56.60;;;;;;5055600;28;19911;-67
2022/04/13 12:42:47;;;;;;;;;;;24.40;57.60;;;;;;5055261;28;19995;-67
2022/04/13 12:45:13;;;;;;;;;;;23.90;58.30;;;;;;5055491;28;19944;-66
2022/04/13 12:47:45;;;;;;;;;;;23.60;59.10;;;;;;5055169;28;19927;-66
2022/04/13 12:50:11;;;;;;;;;;;23.10;58.50;;;;;;5055091;28;19912;-67
2022/04/13 12:52:37;;;;;;;;;;;23.00;59.60;;;;;;5055358;28;19905;-67
2022/04/13 12:55:04;;;;;;;;;;;22.90;59.20;;;;;;5054940;28;19909;-65
2022/04/13 12:57:30;;;;;;;;;;;23.10;59.50;;;;;;5054965;28;19905;-67
2022/04/13 12:59:55;;;;;;;;;;;23.50;59.10;;;;;;5054950;28;19911;-67
2022/04/13 13:02:21;;;;;;;;;;;23.90;59.00;;;;;;5054864;28;20374;-66
2022/04/13 13:04:48;;;;;;;;;;;24.00;60.60;;;;;;5054815;28;19995;-67
2022/04/13 13:07:13;;;;;;;;;;;24.30;59.70;;;;;;5055026;28;19905;-67
2022/04/13 13:09:40;;;;;;;;;;;24.30;58.10;;;;;;5054969;28;19905;-67
2022/04/13 13:12:08;;;;;;;;;;;24.40;58.50;;;;;;5055163;28;20283;-67
2022/04/13 13:14:36;;;;;;;;;;;24.70;58.70;;;;;;5054710;28;19909;-67
2022/04/13 13:17:17;;;;;;;;;;;25.30;57.50;;;;;;5055129;28;20347;-66
2022/04/13 13:19:43;;;;;;;;;;;25.20;57.10;;;;;;5054569;28;19966;-66
2022/04/13 13:22:17;;;;;;;;;;;25.00;57.30;;;;;;5054476;28;19905;-68
2022/04/13 13:25:09;;;;;;;;;;;24.70;58.10;;;;;;5054269;28;19916;-66
2022/04/13 13:27:37;;;;;;;;;;;24.70;57.80;;;;;;5049631;28;19904;-66
2022/04/13 13:30:09;;;;;;;;;;;24.90;57.10;;;;;;5054630;28;19911;-67
2022/04/13 13:32:36;;;;;;;;;;;24.80;56.90;;;;;;5054278;28;20367;-66
2022/04/13 13:35:05;;;;;;;;;;;24.90;56.60;;;;;;5054207;28;20313;-66
2022/04/13 13:37:32;;;;;;;;;;;24.90;56.60;;;;;;5054752;28;19987;-67
2022/04/13 13:39:59;;;;;;;;;;;24.80;56.90;;;;;;5054156;28;19905;-67
2022/04/13 13:42:24;;;;;;;;;;;24.90;57.10;;;;;;5054479;28;19904;-67
2022/04/13 13:44:50;;;;;;;;;;;24.90;56.90;;;;;;5054099;28;19974;-67
2022/04/13 13:47:15;;;;;;;;;;;25.20;56.60;;;;;;5054076;28;19970;-67
2022/04/13 13:49:41;;;;;;;;;;;25.20;56.60;;;;;;5054029;28;19904;-67
2022/04/13 13:52:07;;;;;;;;;;;25.90;57.10;;;;;;5053966;28;19905;-66
2022/04/13 13:54:35;;;;;;;;;;;26.40;55.60;;;;;;5054112;28;19909;-67
2022/04/13 13:57:01;;;;;;;;;;;26.40;56.10;;;;;;5053906;28;19905;-67
2022/04/13 13:59:27;;;;;;;;;;;25.60;55.50;;;;;;5054168;28;19909;-67